Time;durP1;ratioP1;P1;durP2;ratioP2;P2;SDS_P1;SDS_P2;PMS_P1;PMS_P2;Temp;Humidity;BMP_temperature;BMP_pressure;BME280_temperature;BME280_humidity;BME280_pressure;Samples;Min_cycle;Max_cycle;Signal;HPM_P1;HPM_P2
2023/09/28 00:02:21;;;;;;;;;;;;;;;16.78;100.00;100074.75;4870140;29;19927;-77
2023/09/28 00:04:46;;;;;;;;;;;;;;;16.79;100.00;100063.91;4873840;29;20340;-77
2023/09/28 00:07:11;;;;;;;;;;;;;;;16.83;100.00;100060.91;4871135;29;20003;-77
2023/09/28 00:09:37;;;;;;;;;;;;;;;16.87;100.00;100068.41;4868351;29;19924;-77
2023/09/28 00:12:02;;;;;;;;;;;;;;;16.92;100.00;100067.88;4871257;29;19924;-76
2023/09/28 00:14:28;;;;;;;;;;;;;;;16.88;100.00;100066.56;4867726;29;20006;-76
2023/09/28 00:16:53;;;;;;;;;;;;;;;16.84;100.00;100067.91;4868918;29;19928;-75
2023/09/28 00:19:19;;;;;;;;;;;;;;;16.80;100.00;100072.75;4868464;29;19930;-75
2023/09/28 00:21:44;;;;;;;;;;;;;;;16.71;100.00;100069.28;4867877;29;19924;-74
2023/09/28 00:24:09;;;;;;;;;;;;;;;16.69;100.00;100065.94;4869479;29;20327;-76
2023/09/28 00:26:36;;;;;;;;;;;;;;;16.67;100.00;100073.25;4850195;29;19924;-76
2023/09/28 00:29:02;;;;;;;;;;;;;;;16.67;100.00;100073.25;4854128;29;19920;-77
2023/09/28 00:31:28;;;;;;;;;;;;;;;16.69;100.00;100076.59;4870113;29;19924;-75
2023/09/28 00:33:53;;;;;;;;;;;;;;;16.72;100.00;100067.44;4867638;29;19932;-77
2023/09/28 00:36:19;;;;;;;;;;;;;;;16.63;100.00;100066.63;4867364;29;19927;-75
2023/09/28 00:38:47;;;;;;;;;;;;;;;16.61;100.00;100078.47;4865619;29;19924;-75
2023/09/28 00:41:12;;;;;;;;;;;;;;;16.57;100.00;100072.59;4852388;29;19924;-75
2023/09/28 00:43:38;;;;;;;;;;;;;;;16.45;100.00;100078.41;4850049;29;19979;-75
2023/09/28 00:46:03;;;;;;;;;;;;;;;16.45;100.00;100078.41;4868790;29;19977;-75
2023/09/28 00:48:29;;;;;;;;;;;;;;;16.46;100.00;100074.75;4866866;29;20242;-75
2023/09/28 00:50:54;;;;;;;;;;;;;;;16.47;100.00;100074.59;4868463;29;20385;-76
2023/09/28 00:53:22;;;;;;;;;;;;;;;16.46;100.00;100070.25;4867810;29;19931;-74
2023/09/28 00:55:48;;;;;;;;;;;;;;;16.47;100.00;100066.59;4867580;29;20301;-76
2023/09/28 00:58:14;;;;;;;;;;;;;;;16.52;100.00;100069.59;4865698;29;19945;-77
2023/09/28 01:00:40;;;;;;;;;;;;;;;16.58;100.00;100074.25;4863214;29;19930;-76
2023/09/28 01:03:06;;;;;;;;;;;;;;;16.63;100.00;100071.94;4866943;29;19927;-76
2023/09/28 01:05:39;;;;;;;;;;;;;;;16.66;100.00;100063.63;4870063;29;19924;-76
2023/09/28 01:08:08;;;;;;;;;;;;;;;16.66;100.00;100070.78;4852981;29;20015;-76
2023/09/28 01:10:37;;;;;;;;;;;;;;;16.66;100.00;100066.28;4869714;29;19974;-76
2023/09/28 01:13:07;;;;;;;;;;;;;;;16.69;100.00;100065.94;4864965;29;19955;-75
2023/09/28 01:15:32;;;;;;;;;;;;;;;16.70;100.00;100067.59;4868601;29;19947;-76
2023/09/28 01:17:58;;;;;;;;;;;;;;;16.72;100.00;100065.63;4865367;29;19928;-76
2023/09/28 01:20:34;;;;;;;;;;;;;;;16.69;100.00;100071.25;4851914;29;19985;-77
2023/09/28 01:23:00;;;;;;;;;;;;;;;16.68;100.00;100064.25;4866246;29;20015;-77
2023/09/28 01:25:26;;;;;;;;;;;;;;;16.69;100.00;100065.09;4852339;29;19971;-75
2023/09/28 01:27:52;;;;;;;;;;;;;;;16.68;100.00;100063.44;4871622;29;20397;-76
2023/09/28 01:30:18;;;;;;;;;;;;;;;16.65;100.00;100064.63;4866767;29;20314;-77
2023/09/28 01:32:43;;;;;;;;;;;;;;;16.65;100.00;100064.63;4868182;29;20463;-75
2023/09/28 01:35:08;;;;;;;;;;;;;;;16.56;100.00;100065.59;4866324;29;19924;-77
2023/09/28 01:37:50;;;;;;;;;;;;;;;16.57;100.00;100061.94;4869128;29;19923;-76
2023/09/28 01:40:16;;;;;;;;;;;;;;;16.57;100.00;100067.25;4867595;29;20338;-76
2023/09/28 01:42:42;;;;;;;;;;;;;;;16.61;100.00;100057.16;4864138;29;19928;-76
2023/09/28 01:45:07;;;;;;;;;;;;;;;16.64;100.00;100062.94;4866810;29;19928;-76
2023/09/28 01:47:33;;;;;;;;;;;;;;;16.62;100.00;100054.28;4848794;29;19924;-76
2023/09/28 01:49:59;;;;;;;;;;;;;;;16.63;100.00;100053.28;4852151;29;20304;-77
2023/09/28 01:52:24;;;;;;;;;;;;;;;16.62;100.00;100045.47;4867225;29;20334;-76
2023/09/28 01:54:50;;;;;;;;;;;;;;;16.62;100.00;100048.94;4869179;29;19947;-76
2023/09/28 01:57:15;;;;;;;;;;;;;;;16.63;100.00;100050.63;4872648;29;20326;-77
2023/09/28 01:59:40;;;;;;;;;;;;;;;16.62;100.00;100054.28;4867831;29;19924;-78
2023/09/28 02:02:06;;;;;;;;;;;;;;;16.60;100.00;100037.66;4869217;29;20338;-76
2023/09/28 02:04:31;;;;;;;;;;;;;;;16.63;100.00;100031.97;4865136;29;19924;-76
2023/09/28 02:06:56;;;;;;;;;;;;;;;16.62;100.00;100016.97;4868505;29;20366;-76
2023/09/28 02:09:23;;;;;;;;;;;;;;;16.57;100.00;100023.78;4850515;29;19975;-77
2023/09/28 02:11:49;;;;;;;;;;;;;;;16.52;100.00;100010.97;4865759;29;19924;-76
2023/09/28 02:14:14;;;;;;;;;;;;;;;16.47;100.00;100013.34;4869500;29;19931;-76
2023/09/28 02:16:40;;;;;;;;;;;;;;;16.39;100.00;100016.00;4868103;29;20011;-76
2023/09/28 02:19:05;;;;;;;;;;;;;;;16.38;100.00;100019.66;4855846;29;19924;-76
2023/09/28 02:21:31;;;;;;;;;;;;;;;16.30;100.00;100027.69;4869213;29;19968;-76
2023/09/28 02:23:58;;;;;;;;;;;;;;;16.17;100.00;100028.19;4870932;29;19932;-76
2023/09/28 02:26:24;;;;;;;;;;;;;;;16.03;100.00;100020.00;4868586;29;20026;-76
2023/09/28 02:28:50;;;;;;;;;;;;;;;15.98;100.00;100013.38;4877128;29;20006;-75
2023/09/28 02:31:15;;;;;;;;;;;;;;;15.90;100.00;100025.84;4876398;29;19976;-75
2023/09/28 02:33:41;;;;;;;;;;;;;;;15.74;100.00;100026.66;4881861;29;19927;-76
2023/09/28 02:36:06;;;;;;;;;;;;;;;15.63;100.00;100023.47;4878467;29;19925;-76
2023/09/28 02:38:32;;;;;;;;;;;;;;;15.48;100.00;100023.25;4860195;29;19924;-76
2023/09/28 02:40:58;;;;;;;;;;;;;;;15.27;100.00;100020.19;4869389;29;20015;-76
2023/09/28 02:43:23;;;;;;;;;;;;;;;15.22;100.00;100019.84;4877927;29;20080;-76
2023/09/28 02:45:49;;;;;;;;;;;;;;;15.18;100.00;100023.81;4872999;29;19921;-76
2023/09/28 02:48:14;;;;;;;;;;;;;;;15.18;100.00;100023.81;4878863;29;20397;-76
2023/09/28 02:50:39;;;;;;;;;;;;;;;15.16;100.00;100030.13;4874811;29;19928;-76
2023/09/28 02:53:07;;;;;;;;;;;;;;;15.18;100.00;100031.81;4875989;29;20412;-75
2023/09/28 02:55:32;;;;;;;;;;;;;;;15.14;100.00;100034.78;4877022;29;19928;-75
2023/09/28 02:57:58;;;;;;;;;;;;;;;15.12;100.00;100031.47;4876615;29;19947;-75
2023/09/28 03:02:52;;;;;;;;;;;;;;;15.10;100.00;100046.72;4875991;29;19924;-75
2023/09/28 03:05:19;;;;;;;;;;;;;;;15.09;100.00;100052.19;4876321;29;20359;-76
2023/09/28 03:07:45;;;;;;;;;;;;;;;15.09;100.00;100054.84;4874120;29;19946;-76
2023/09/28 03:10:12;;;;;;;;;;;;;;;15.07;100.00;100049.72;4857707;29;20027;-76
2023/09/28 03:12:37;;;;;;;;;;;;;;;15.05;100.00;100057.00;4875016;29;19924;-76
2023/09/28 03:15:10;;;;;;;;;;;;;;;15.12;100.00;100063.34;4874000;29;19998;-76
2023/09/28 03:17:36;;;;;;;;;;;;;;;15.10;100.00;100054.69;4878503;29;19927;-76
2023/09/28 03:20:05;;;;;;;;;;;;;;;15.07;100.00;100059.50;4871910;29;20290;-75
2023/09/28 03:22:30;;;;;;;;;;;;;;;14.99;100.00;100056.81;4877458;29;19934;-76
2023/09/28 03:24:57;;;;;;;;;;;;;;;14.97;100.00;100059.59;4870868;29;20211;-78
2023/09/28 03:27:23;;;;;;;;;;;;;;;15.00;100.00;100054.00;4869848;29;19925;-75
2023/09/28 03:29:49;;;;;;;;;;;;;;;15.11;100.00;100055.53;4875343;29;20312;-74
2023/09/28 03:32:15;;;;;;;;;;;;;;;15.20;100.00;100054.56;4874785;29;19967;-76
2023/09/28 03:34:40;;;;;;;;;;;;;;;15.23;100.00;100053.41;4874324;29;20396;-77
2023/09/28 03:37:05;;;;;;;;;;;;;;;15.30;100.00;100049.13;4877236;29;20014;-77
2023/09/28 03:39:31;;;;;;;;;;;;;;;15.33;100.00;100048.78;4855817;29;20350;-76
2023/09/28 03:41:56;;;;;;;;;;;;;;;15.34;100.00;100050.47;4870600;29;19935;-76
2023/09/28 03:44:21;;;;;;;;;;;;;;;15.38;100.00;100047.31;4868901;29;19931;-76
2023/09/28 03:46:47;;;;;;;;;;;;;;;15.41;100.00;100046.16;4868794;29;19931;-77
2023/09/28 03:49:12;;;;;;;;;;;;;;;15.48;100.00;100063.16;4870230;29;20374;-75
2023/09/28 03:51:38;;;;;;;;;;;;;;;15.50;100.00;100053.16;4867765;29;19924;-75
2023/09/28 03:54:03;;;;;;;;;;;;;;;15.50;100.00;100055.81;4867647;29;20428;-76
2023/09/28 03:56:28;;;;;;;;;;;;;;;15.43;100.00;100054.84;4870306;29;20388;-75
2023/09/28 03:58:54;;;;;;;;;;;;;;;15.40;100.00;100052.47;4867891;29;19931;-74
2023/09/28 04:01:19;;;;;;;;;;;;;;;15.34;100.00;100066.41;4869116;29;19921;-75
2023/09/28 04:03:44;;;;;;;;;;;;;;;15.29;100.00;100063.41;4869199;29;19924;-75
2023/09/28 04:06:10;;;;;;;;;;;;;;;15.29;100.00;100052.78;4874325;29;19928;-74
2023/09/28 04:08:37;;;;;;;;;;;;;;;15.22;100.00;100043.78;4870452;29;20344;-75
2023/09/28 04:11:02;;;;;;;;;;;;;;;15.26;100.00;100037.97;4871009;29;20255;-76
2023/09/28 04:13:27;;;;;;;;;;;;;;;15.31;100.00;100029.53;4870196;29;19968;-76
2023/09/28 04:15:53;;;;;;;;;;;;;;;15.36;100.00;100021.91;4867709;29;19928;-75
2023/09/28 04:18:18;;;;;;;;;;;;;;;15.38;100.00;100007.44;4868601;29;19924;-75
2023/09/28 04:20:43;;;;;;;;;;;;;;;15.44;100.00;100008.59;4869102;29;19924;-76
2023/09/28 04:23:09;;;;;;;;;;;;;;;15.51;100.00;99996.31;4867464;29;20380;-76
2023/09/28 04:25:35;;;;;;;;;;;;;;;15.56;100.00;99994.03;4869910;29;20423;-76
2023/09/28 04:28:00;;;;;;;;;;;;;;;15.63;100.00;100004.84;4866875;29;19980;-76
2023/09/28 04:30:26;;;;;;;;;;;;;;;15.58;100.00;100018.66;4869352;29;19938;-76
2023/09/28 04:32:51;;;;;;;;;;;;;;;15.52;100.00;100021.97;4867786;29;20796;-76
2023/09/28 04:35:17;;;;;;;;;;;;;;;15.45;100.00;100015.59;4874284;29;19941;-75
2023/09/28 04:37:43;;;;;;;;;;;;;;;15.40;100.00;100023.22;4868332;29;20376;-75
2023/09/28 04:40:10;;;;;;;;;;;;;;;15.33;100.00;100023.03;4866366;29;19924;-77
2023/09/28 04:42:35;;;;;;;;;;;;;;;15.34;100.00;100021.22;4868741;29;20085;-77
2023/09/28 04:45:00;;;;;;;;;;;;;;;15.40;100.00;100012.59;4873451;29;20050;-74
2023/09/28 04:47:26;;;;;;;;;;;;;;;15.45;100.00;100004.94;4877019;29;19967;-75
2023/09/28 04:49:51;;;;;;;;;;;;;;;15.50;100.00;100007.94;4876900;29;19967;-75
2023/09/28 04:52:17;;;;;;;;;;;;;;;15.54;100.00;100019.97;4877342;29;19931;-77
2023/09/28 04:54:43;;;;;;;;;;;;;;;15.53;100.00;100026.28;4876823;29;19928;-76
2023/09/28 04:57:09;;;;;;;;;;;;;;;15.56;100.00;100028.63;4877170;29;19924;-78
2023/09/28 04:59:40;;;;;;;;;;;;;;;15.54;100.00;100025.31;4867075;29;19924;-77
2023/09/28 05:02:06;;;;;;;;;;;;;;;15.43;100.00;100039.69;4870866;29;19924;-77
2023/09/28 05:04:31;;;;;;;;;;;;;;;15.21;100.00;100034.13;4872285;29;19931;-76
2023/09/28 05:06:59;;;;;;;;;;;;;;;15.04;100.00;100036.72;4855930;29;19932;-78
2023/09/28 05:09:26;;;;;;;;;;;;;;;14.92;100.00;100038.00;4877592;29;20005;-79
2023/09/28 05:11:53;;;;;;;;;;;;;;;14.91;100.00;100028.34;4872603;29;20743;-78
2023/09/28 05:14:23;;;;;;;;;;;;;;;14.86;100.00;100035.97;4871501;29;20034;-82
2023/09/28 05:16:49;;;;;;;;;;;;;;;14.84;100.00;100037.97;4872871;29;20373;-76
2023/09/28 05:19:15;;;;;;;;;;;;;;;14.83;100.00;100046.94;4873488;29;19926;-76
2023/09/28 05:21:40;;;;;;;;;;;;;;;14.87;100.00;100042.97;4873397;29;20368;-78
2023/09/28 05:24:06;;;;;;;;;;;;;;;14.90;100.00;100042.66;4876934;29;19980;-78
2023/09/28 05:26:32;;;;;;;;;;;;;;;14.99;100.00;100036.38;4868977;29;19932;-76
2023/09/28 05:28:58;;;;;;;;;;;;;;;15.08;100.00;100040.72;4873844;29;20010;-75
2023/09/28 05:31:23;;;;;;;;;;;;;;;15.18;100.00;100029.16;4865436;29;19935;-78
2023/09/28 05:33:49;;;;;;;;;;;;;;;15.28;100.00;100024.53;4865325;29;19928;-77
2023/09/28 05:36:14;;;;;;;;;;;;;;;15.31;100.00;100032.19;4865863;29;19924;-78
2023/09/28 05:38:39;;;;;;;;;;;;;;;15.37;100.00;100050.16;4866219;29;20333;-77
2023/09/28 05:41:05;;;;;;;;;;;;;;;15.41;100.00;100043.50;4869287;29;20412;-77
2023/09/28 05:43:30;;;;;;;;;;;;;;;15.47;100.00;100050.84;4865963;29;20032;-78
2023/09/28 05:45:56;;;;;;;;;;;;;;;15.49;100.00;100054.19;4868890;29;19935;-77
2023/09/28 05:48:21;;;;;;;;;;;;;;;15.49;100.00;100059.50;4868444;29;20795;-77
2023/09/28 05:50:46;;;;;;;;;;;;;;;15.40;100.00;100055.13;4870788;29;19924;-77
2023/09/28 05:53:12;;;;;;;;;;;;;;;15.36;100.00;100049.31;4872539;29;20019;-76
2023/09/28 05:55:37;;;;;;;;;;;;;;;15.41;100.00;100047.00;4870219;29;19947;-76
2023/09/28 05:58:03;;;;;;;;;;;;;;;15.41;100.00;100048.84;4872919;29;19924;-76
2023/09/28 06:00:28;;;;;;;;;;;;;;;15.43;100.00;100045.00;4876887;29;19971;-78
2023/09/28 06:02:53;;;;;;;;;;;;;;;15.42;100.00;100046.03;4876995;29;19924;-77
2023/09/28 06:05:19;;;;;;;;;;;;;;;15.42;100.00;100053.16;4877042;29;19946;-78
2023/09/28 06:07:44;;;;;;;;;;;;;;;15.29;100.00;100058.09;4874965;29;20289;-75
2023/09/28 06:10:10;;;;;;;;;;;;;;;15.24;100.00;100063.06;4875298;29;19976;-76
2023/09/28 06:12:35;;;;;;;;;;;;;;;15.13;100.00;100057.06;4873472;29;19927;-77
2023/09/28 06:15:01;;;;;;;;;;;;;;;15.14;100.00;100060.50;4878507;29;19928;-77
2023/09/28 06:17:26;;;;;;;;;;;;;;;15.11;100.00;100055.53;4873883;29;19935;-77
2023/09/28 06:19:52;;;;;;;;;;;;;;;15.14;100.00;100056.03;4874969;29;19938;-78
2023/09/28 06:22:17;;;;;;;;;;;;;;;15.20;100.00;100059.88;4877394;29;19963;-77
2023/09/28 06:24:42;;;;;;;;;;;;;;;15.31;100.00;100056.13;4872161;29;19931;-74
2023/09/28 06:27:08;;;;;;;;;;;;;;;15.40;100.00;100055.13;4876458;29;20407;-73
2023/09/28 06:29:33;;;;;;;;;;;;;;;15.50;100.00;100055.81;4877261;29;20297;-77
2023/09/28 06:31:59;;;;;;;;;;;;;;;15.59;100.00;100057.56;4871634;29;19950;-75
2023/09/28 06:34:24;;;;;;;;;;;;;;;15.70;100.00;100067.91;4869767;29;20372;-77
2023/09/28 06:36:50;;;;;;;;;;;;;;;15.78;100.00;100064.44;4869906;29;20027;-76
2023/09/28 06:39:15;;;;;;;;;;;;;;;15.84;100.00;100064.59;4871285;29;19923;-76
2023/09/28 06:41:40;;;;;;;;;;;;;;;15.87;100.00;100069.59;4868827;29;20051;-78
2023/09/28 06:44:08;;;;;;;;;;;;;;;15.90;100.00;100073.75;4872030;29;19963;-78
2023/09/28 06:46:34;;;;;;;;;;;;;;;15.91;100.00;100073.56;4872715;29;20007;-78
2023/09/28 06:48:59;;;;;;;;;;;;;;;15.86;100.00;100077.72;4854757;29;19927;-77
2023/09/28 06:51:25;;;;;;;;;;;;;;;15.85;100.00;100070.72;4869337;29;19935;-78
2023/09/28 06:53:51;;;;;;;;;;;;;;;15.88;100.00;100076.56;4869902;29;20015;-76
2023/09/28 06:56:16;;;;;;;;;;;;;;;15.90;100.00;100082.56;4870478;29;20022;-77
2023/09/28 06:58:42;;;;;;;;;;;;;;;15.95;100.00;100082.91;4874525;29;19980;-76
2023/09/28 07:01:08;;;;;;;;;;;;;;;15.98;100.00;100085.22;4871657;29;19919;-76
2023/09/28 07:03:33;;;;;;;;;;;;;;;15.97;100.00;100074.75;4868210;29;19946;-78
2023/09/28 07:05:58;;;;;;;;;;;;;;;16.02;100.00;100076.94;4846144;29;20454;-76
2023/09/28 07:08:24;;;;;;;;;;;;;;;16.09;100.00;100088.56;4861520;29;19930;-76
2023/09/28 07:10:50;;;;;;;;;;;;;;;16.20;100.00;100096.25;4860090;29;20382;-75
2023/09/28 07:13:16;;;;;;;;;;;;;;;16.33;100.00;100091.25;4860584;29;19927;-76
2023/09/28 07:15:42;;;;;;;;;;;;;;;16.42;100.00;100090.25;4859902;29;19924;-76
2023/09/28 07:18:07;;;;;;;;;;;;;;;16.52;100.00;100090.91;4860555;29;19924;-74
2023/09/28 07:20:34;;;;;;;;;;;;;;;16.66;100.00;100092.94;4859137;29;19992;-77
2023/09/28 07:23:00;;;;;;;;;;;;;;;16.78;100.00;100096.91;4870727;29;19990;-76
2023/09/28 07:25:26;;;;;;;;;;;;;;;16.89;100.00;100105.56;4868818;29;20428;-77
2023/09/28 07:27:52;;;;;;;;;;;;;;;16.99;100.00;100098.19;4869552;29;20007;-76
2023/09/28 07:30:19;;;;;;;;;;;;;;;17.13;100.00;100102.81;4875286;29;19930;-78
2023/09/28 07:32:45;;;;;;;;;;;;;;;17.26;100.00;100115.63;4868414;29;19924;-77
2023/09/28 07:35:11;;;;;;;;;;;;;;;17.40;100.00;100113.03;4870530;29;20022;-77
2023/09/28 07:37:37;;;;;;;;;;;;;;;17.48;100.00;100115.69;4867276;29;20020;-77
2023/09/28 07:40:04;;;;;;;;;;;;;;;17.51;100.00;100110.00;4870490;29;20079;-76
2023/09/28 07:42:30;;;;;;;;;;;;;;;17.54;100.00;100115.00;4868032;29;19924;-77
2023/09/28 07:44:55;;;;;;;;;;;;;;;17.56;100.00;100120.97;4869895;29;19984;-77
2023/09/28 07:47:21;;;;;;;;;;;;;;;17.54;100.00;100120.34;4859462;29;19927;-78
2023/09/28 07:49:47;;;;;;;;;;;;;;;17.54;100.00;100125.69;4876674;29;20296;-76
2023/09/28 07:52:12;;;;;;;;;;;;;;;17.52;100.00;100133.00;4872594;29;20374;-76
2023/09/28 07:54:37;;;;;;;;;;;;;;;17.52;100.00;100122.34;4870284;29;20463;-77
2023/09/28 07:57:04;;;;;;;;;;;;;;;17.62;100.00;100126.66;4867430;29;20296;-77
2023/09/28 07:59:32;;;;;;;;;;;;;;;17.76;100.00;100123.25;4870169;29;20370;-77
2023/09/28 08:01:58;;;;;;;;;;;;;;;17.89;100.00;100129.69;4867752;29;19932;-77
2023/09/28 08:04:23;;;;;;;;;;;;;;;18.00;100.00;100126.63;4867254;29;19931;-78
2023/09/28 08:06:48;;;;;;;;;;;;;;;18.12;100.00;100119.03;4868015;29;20420;-77
2023/09/28 08:09:14;;;;;;;;;;;;;;;18.24;100.00;100127.47;4869240;29;19931;-77
2023/09/28 08:11:40;;;;;;;;;;;;;;;18.35;100.00;100113.69;4866312;29;19932;-77
2023/09/28 08:14:06;;;;;;;;;;;;;;;18.47;100.00;100117.59;4870156;29;19924;-76
2023/09/28 08:16:31;;;;;;;;;;;;;;;18.56;100.00;100115.69;4867105;29;19932;-76
2023/09/28 08:18:56;;;;;;;;;;;;;;;18.64;100.00;100119.16;4868895;29;19979;-76
2023/09/28 08:21:24;;;;;;;;;;;;;;;18.70;100.00;100122.94;4868187;29;19924;-77
2023/09/28 08:23:50;;;;;;;;;;;;;;;18.78;100.00;100118.34;4872629;29;19972;-75
2023/09/28 08:26:15;;;;;;;;;;;;;;;18.88;100.00;100115.41;4868028;29;20254;-78
2023/09/28 08:28:41;;;;;;;;;;;;;;;18.90;100.00;100118.75;4869203;29;19983;-78
2023/09/28 08:31:06;;;;;;;;;;;;;;;18.96;100.00;100130.56;4866735;29;20572;-77
2023/09/28 08:33:32;;;;;;;;;;;;;;;18.99;100.00;100128.31;4866695;29;19924;-77
2023/09/28 08:35:57;;;;;;;;;;;;;;;19.03;100.00;100134.97;4868903;29;19967;-78
2023/09/28 08:38:22;;;;;;;;;;;;;;;19.09;100.00;100134.22;4867453;29;19924;-78
2023/09/28 08:40:54;;;;;;;;;;;;;;;19.15;100.00;100130.81;4867117;29;19924;-77
2023/09/28 08:43:21;;;;;;;;;;;;;;;19.20;100.00;100128.41;4868013;29;19995;-78
2023/09/28 08:45:50;;;;;;;;;;;;;;;19.30;100.00;100135.34;4867441;29;20081;-78
2023/09/28 08:48:17;;;;;;;;;;;;;;;19.38;100.00;100133.41;4867187;29;19931;-78
2023/09/28 08:50:44;;;;;;;;;;;;;;;19.46;100.00;100135.19;4866695;29;20405;-78
2023/09/28 08:53:10;;;;;;;;;;;;;;;19.52;100.00;100126.41;4872049;29;20385;-76
2023/09/28 08:55:39;;;;;;;;;;;;;;;19.58;100.00;100128.34;4868966;29;19931;-79
2023/09/28 08:58:05;;;;;;;;;;;;;;;19.68;100.00;100118.16;4869720;29;19946;-77
2023/09/28 09:00:31;;;;;;;;;;;;;;;19.78;100.00;100124.06;4866300;29;19935;-78
2023/09/28 09:02:58;;;;;;;;;;;;;;;19.83;100.00;100129.69;4868174;29;19972;-78
2023/09/28 09:05:29;;;;;;;;;;;;;;;19.88;100.00;100134.47;4867161;29;19923;-78
2023/09/28 09:07:55;;;;;;;;;;;;;;;19.92;100.00;100123.19;4867761;29;20404;-77
2023/09/28 09:10:22;;;;;;;;;;;;;;;19.94;100.00;100126.53;4867453;29;19931;-78
2023/09/28 09:12:48;;;;;;;;;;;;;;;19.99;100.00;100131.31;4866763;29;19924;-77
2023/09/28 09:15:13;;;;;;;;;;;;;;;20.04;100.00;100129.72;4866984;29;19947;-76
2023/09/28 09:17:38;;;;;;;;;;;;;;;20.09;100.00;100117.63;4865753;29;19962;-78
2023/09/28 09:20:08;;;;;;;;;;;;;;;20.13;100.00;100121.56;4869426;29;20019;-78
2023/09/28 09:22:34;;;;;;;;;;;;;;;20.17;100.00;100112.94;4873333;29;19923;-78
2023/09/28 09:25:00;;;;;;;;;;;;;;;20.24;100.00;100113.00;4866057;29;19928;-77
2023/09/28 09:27:27;;;;;;;;;;;;;;;20.34;100.00;100118.91;4867721;29;19924;-77
2023/09/28 09:29:56;;;;;;;;;;;;;;;20.42;100.00;100116.09;4866576;29;19980;-78
2023/09/28 09:32:22;;;;;;;;;;;;;;;20.49;100.00;100100.91;4867559;29;19924;-77
2023/09/28 09:34:47;;;;;;;;;;;;;;;20.53;100.00;100110.22;4867422;29;19924;-77
2023/09/28 09:37:13;;;;;;;;;;;;;;;20.59;100.00;100098.72;4866057;29;19932;-77
2023/09/28 09:39:39;;;;;;;;;;;;;;;20.64;100.00;100104.31;4868353;29;19924;-77
2023/09/28 09:42:04;;;;;;;;;;;;;;;20.68;100.00;100108.25;4848879;29;19932;-75
2023/09/28 09:44:30;;;;;;;;;;;;;;;20.67;100.00;100109.31;4868614;29;20167;-77
2023/09/28 09:46:55;;;;;;;;;;;;;;;20.69;100.00;100109.94;4865984;29;19927;-76
2023/09/28 09:49:24;;;;;;;;;;;;;;;20.72;100.00;100106.88;4867458;29;19925;-77
2023/09/28 09:51:49;;;;;;;;;;;;;;;20.75;100.00;100111.00;4869712;29;20301;-78
2023/09/28 09:54:16;;;;;;;;;;;;;;;20.78;100.00;100100.72;4868828;29;19996;-77
2023/09/28 09:56:46;;;;;;;;;;;;;;;20.82;100.00;100111.88;4867888;29;19928;-77
2023/09/28 09:59:12;;;;;;;;;;;;;;;20.84;100.00;100113.38;4865932;29;20266;-78
2023/09/28 10:01:39;;;;;;;;;;;;;;;20.89;100.00;100112.78;4868388;29;19923;-77
2023/09/28 10:04:12;;;;;;;;;;;;;;;20.92;100.00;100101.63;4865799;29;20034;-77
2023/09/28 10:06:38;;;;;;;;;;;;;;;20.97;100.00;100103.75;4869207;29;19924;-77
2023/09/28 10:09:04;;;;;;;;;;;;;;;21.01;100.00;100113.06;4871329;29;19972;-77
2023/09/28 10:11:31;;;;;;;;;;;;;;;21.05;100.00;100107.09;4872946;29;19928;-77
2023/09/28 10:13:57;;;;;;;;;;;;;;;21.08;100.00;100101.34;4866028;29;19932;-77
2023/09/28 10:16:23;;;;;;;;;;;;;;;21.12;100.00;100091.03;4867792;29;20274;-76
2023/09/28 10:18:51;;;;;;;;;;;;;;;21.14;100.00;100089.00;4866468;29;20027;-76
2023/09/28 10:21:17;;;;;;;;;;;;;;;21.17;100.00;100091.28;4869122;29;19920;-76
2023/09/28 10:23:42;;;;;;;;;;;;;;;21.22;100.00;100091.53;4867514;29;19971;-76
2023/09/28 10:26:11;;;;;;;;;;;;;;;21.25;100.00;100101.88;4865345;29;19927;-77
2023/09/28 10:28:57;;;;;;;;;;;;;;;21.26;100.00;100092.81;4868347;29;19972;-77
2023/09/28 10:31:22;;;;;;;;;;;;;;;21.28;100.00;100096.09;4868850;29;20027;-77
2023/09/28 10:33:58;;;;;;;;;;;;;;;21.29;100.00;100092.41;4866411;29;20019;-77
2023/09/28 10:36:26;;;;;;;;;;;;;;;21.33;100.00;100098.19;4869392;29;19927;-78
2023/09/28 10:39:05;;;;;;;;;;;;;;;21.37;100.00;100104.81;4870087;29;20027;-77
2023/09/28 10:41:30;;;;;;;;;;;;;;;21.40;100.00;100110.63;4868577;29;19932;-77
2023/09/28 10:43:56;;;;;;;;;;;;;;;21.43;100.00;100099.50;4870410;29;19972;-77
2023/09/28 10:46:22;;;;;;;;;;;;;;;21.48;100.00;100097.03;4853069;29;20022;-77
2023/09/28 10:48:47;;;;;;;;;;;;;;;21.53;100.00;100089.19;4869032;29;19925;-76
2023/09/28 10:51:13;;;;;;;;;;;;;;;21.60;100.00;100090.06;4872178;29;19924;-76
2023/09/28 10:53:39;;;;;;;;;;;;;;;21.64;100.00;100090.47;4871164;29;20406;-76
2023/09/28 10:56:06;;;;;;;;;;;;;;;21.71;100.00;100085.13;4868784;29;19967;-78
2023/09/28 10:58:35;;;;;;;;;;;;;;;21.76;100.00;100088.03;4871179;29;20281;-77
2023/09/28 11:01:06;;;;;;;;;;;;;;;21.83;100.00;100084.34;4871206;29;19979;-77
2023/09/28 11:03:32;;;;;;;;;;;;;;;21.92;100.00;100080.44;4867901;29;19924;-78
2023/09/28 11:05:59;;;;;;;;;;;;;;;22.01;100.00;100078.44;4870000;29;20309;-78
2023/09/28 11:08:25;;;;;;;;;;;;;;;22.08;100.00;100071.22;4870613;29;19930;-79
2023/09/28 11:10:50;;;;;;;;;;;;;;;22.17;100.00;100069.97;4874202;29;19928;-77
2023/09/28 11:13:15;;;;;;;;;;;;;;;22.26;100.00;100074.13;4870389;29;19931;-77
2023/09/28 11:15:41;;;;;;;;;;;;;;;22.35;100.00;100067.50;4876331;29;20374;-77
2023/09/28 11:18:06;;;;;;;;;;;;;;;22.42;100.00;100062.94;4876549;29;20391;-78
2023/09/28 11:20:33;;;;;;;;;;;;;;;22.52;100.00;100061.69;4535753;29;10000605;-78
2023/09/28 11:22:58;;;;;;;;;;;;;;;22.64;100.00;100054.66;4876288;29;20316;-78
2023/09/28 11:25:26;;;;;;;;;;;;;;;22.79;100.00;100058.81;4877300;29;20100;-77
2023/09/28 11:27:52;;;;;;;;;;;;;;;23.00;100.00;100057.72;4874667;29;19946;-77
2023/09/28 11:30:19;;;;;;;;;;;;;;;23.15;100.00;100049.41;4876012;29;19938;-75
2023/09/28 11:32:51;;;;;;;;;;;;;;;23.31;100.00;100057.03;4868436;29;19928;-76
2023/09/28 11:35:22;;;;;;;;;;;;;;;23.45;100.00;100052.38;4867288;29;19927;-75
2023/09/28 11:37:48;;;;;;;;;;;;;;;23.57;100.00;100040.75;4873924;29;19935;-75
2023/09/28 11:40:15;;;;;;;;;;;;;;;23.68;100.00;100033.84;4859277;29;19924;-76
2023/09/28 11:42:42;;;;;;;;;;;;;;;23.85;100.00;100037.72;4875730;29;20365;-77
2023/09/28 11:45:10;;;;;;;;;;;;;;;24.06;100.00;100036.50;4874823;29;19923;-79
2023/09/28 11:47:36;;;;;;;;;;;;;;;24.23;100.00;100036.84;4868897;29;19952;-77
2023/09/28 11:50:07;;;;;;;;;;;;;;;24.32;100.00;100022.88;4872579;29;19955;-75
2023/09/28 11:52:35;;;;;;;;;;;;;;;24.39;100.00;100033.56;4875296;29;19935;-74
2023/09/28 11:55:01;;;;;;;;;;;;;;;24.43;100.00;100029.41;4873156;29;19987;-74
2023/09/28 11:57:27;;;;;;;;;;;;;;;24.49;100.00;100023.13;4876126;29;20373;-72
2023/09/28 11:59:53;;;;;;;;;;;;;;;24.49;100.00;100020.44;4874631;29;20545;-73
2023/09/28 12:02:19;;;;;;;;;;;;;;;24.52;100.00;100022.69;4875162;29;19943;-74
2023/09/28 12:04:45;;;;;;;;;;;;;;;24.53;100.00;100018.94;4875115;29;19924;-73
2023/09/28 12:07:11;;;;;;;;;;;;;;;24.52;100.00;100022.69;4875376;29;20341;-77
2023/09/28 12:09:39;;;;;;;;;;;;;;;24.72;100.00;100017.91;4874714;29;19928;-76
2023/09/28 12:12:04;;;;;;;;;;;;;;;24.92;100.00;100016.94;4868368;29;20472;-76
2023/09/28 12:14:29;;;;;;;;;;;;;;;25.01;100.00;100020.97;4868112;29;19927;-75
2023/09/28 12:16:57;;;;;;;;;;;;;;;25.12;100.00;100023.72;4874126;29;19935;-75
2023/09/28 12:19:22;;;;;;;;;;;;;;;25.23;100.00;100014.03;4874574;29;20298;-74
2023/09/28 12:21:48;;;;;;;;;;;;;;;25.24;100.00;100015.69;4874527;29;19931;-74
2023/09/28 12:24:13;;;;;;;;;;;;;;;25.16;100.00;100007.88;4874455;29;20300;-76